createdAt,value
2023-08-23T00:00:35.277Z,21.11
2023-08-23T00:01:37.137Z,21.09
2023-08-23T00:02:39.075Z,21.08
2023-08-23T00:03:40.925Z,21.08
2023-08-23T00:04:42.758Z,21.07
2023-08-23T00:05:44.820Z,21.04
2023-08-23T00:06:47.221Z,21.02
2023-08-23T00:07:49.202Z,21.02
2023-08-23T00:08:51.337Z,21.04
2023-08-23T00:09:53.380Z,21.04
2023-08-23T00:10:56.351Z,21.02
2023-08-23T00:11:58.661Z,20.99
2023-08-23T00:13:00.821Z,21.03
2023-08-23T00:14:02.667Z,21.02
2023-08-23T00:15:05.727Z,21.01
2023-08-23T00:16:07.696Z,21.00
2023-08-23T00:17:09.739Z,21.01
2023-08-23T00:18:11.599Z,20.99
2023-08-23T00:19:13.551Z,21.00
2023-08-23T00:20:15.477Z,21.01
2023-08-23T00:21:17.547Z,20.99
2023-08-23T00:22:19.443Z,21.01
2023-08-23T00:23:21.274Z,20.99
2023-08-23T00:24:23.233Z,21.02
2023-08-23T00:25:25.118Z,21.02
2023-08-23T00:26:26.932Z,21.04
2023-08-23T00:27:28.793Z,21.03
2023-08-23T00:28:30.627Z,21.05
2023-08-23T00:29:32.554Z,21.01
2023-08-23T00:30:34.473Z,21.06
2023-08-23T00:31:36.481Z,21.10
2023-08-23T00:32:38.633Z,21.07
2023-08-23T00:33:42.066Z,21.05
2023-08-23T00:34:44.017Z,21.09
2023-08-23T00:35:46.004Z,21.08
2023-08-23T00:36:47.942Z,21.09
2023-08-23T00:37:49.814Z,21.08
2023-08-23T00:38:51.596Z,21.06
2023-08-23T00:39:53.369Z,21.08
2023-08-23T00:40:55.279Z,21.07
2023-08-23T00:41:57.315Z,21.06
2023-08-23T00:42:59.154Z,21.06
2023-08-23T00:44:00.955Z,21.06
2023-08-23T00:45:02.874Z,21.05
2023-08-23T00:46:05.878Z,21.04
2023-08-23T00:47:07.783Z,21.03
2023-08-23T00:48:12.970Z,21.03
2023-08-23T00:49:15.384Z,21.03
2023-08-23T00:50:17.293Z,21.03
2023-08-23T00:51:20.365Z,21.05
2023-08-23T00:52:22.260Z,21.05
2023-08-23T00:53:24.122Z,21.05
2023-08-23T00:54:25.976Z,21.05
2023-08-23T00:55:28.258Z,21.05
2023-08-23T00:56:31.683Z,21.05
2023-08-23T00:57:33.676Z,21.06
2023-08-23T00:58:36.020Z,21.05
2023-08-23T00:59:38.754Z,21.06
2023-08-23T01:00:42.622Z,21.04
2023-08-23T01:01:44.491Z,21.05
2023-08-23T01:02:46.580Z,21.06
2023-08-23T01:03:50.822Z,21.05
2023-08-23T01:04:52.627Z,21.04
2023-08-23T01:06:09.228Z,21.05
2023-08-23T01:07:18.878Z,21.03
2023-08-23T01:09:14.372Z,21.02
2023-08-23T01:10:26.431Z,20.99
2023-08-23T01:11:46.734Z,20.98
2023-08-23T01:13:10.281Z,20.96
2023-08-23T01:14:32.334Z,20.95
2023-08-23T01:15:35.662Z,20.93
2023-08-23T01:16:41.899Z,20.91
2023-08-23T01:17:44.938Z,20.89
2023-08-23T01:18:48.051Z,20.88
2023-08-23T01:19:51.900Z,20.86
2023-08-23T01:20:54.779Z,20.85
2023-08-23T01:21:58.747Z,20.82
2023-08-23T01:23:15.481Z,20.81
2023-08-23T01:24:17.452Z,20.79
2023-08-23T01:25:19.315Z,20.77
2023-08-23T01:26:21.200Z,20.75
2023-08-23T01:27:23.340Z,20.75
2023-08-23T01:28:25.536Z,20.73
2023-08-23T01:29:27.370Z,20.71
2023-08-23T01:30:30.509Z,20.71
2023-08-23T01:31:41.191Z,20.69
2023-08-23T01:33:02.683Z,20.71
2023-08-23T01:34:23.988Z,20.71
2023-08-23T01:36:08.601Z,20.71
2023-08-23T01:37:12.174Z,20.69
2023-08-23T01:38:17.528Z,20.69
2023-08-23T01:39:25.633Z,20.69
2023-08-23T01:40:28.466Z,20.68
2023-08-23T01:41:30.872Z,20.68
2023-08-23T01:42:33.040Z,20.68
2023-08-23T01:43:34.841Z,20.67
2023-08-23T01:44:36.706Z,20.66
2023-08-23T01:45:38.534Z,20.66
2023-08-23T01:46:40.325Z,20.61
2023-08-23T01:47:42.205Z,20.59
2023-08-23T01:48:44.385Z,20.58
2023-08-23T01:49:46.251Z,20.58
2023-08-23T01:50:51.717Z,20.58
2023-08-23T01:51:53.572Z,20.56
2023-08-23T01:52:55.356Z,20.55
2023-08-23T01:53:57.200Z,20.53
2023-08-23T01:54:59.101Z,20.50
2023-08-23T01:56:01.895Z,20.51
2023-08-23T01:57:03.893Z,20.49
2023-08-23T01:58:05.843Z,20.49
2023-08-23T01:59:07.737Z,20.50
2023-08-23T02:00:11.137Z,20.48
2023-08-23T02:01:13.576Z,20.48
2023-08-23T02:02:15.427Z,20.46
2023-08-23T02:03:17.497Z,20.47
2023-08-23T02:04:20.815Z,20.42
2023-08-23T02:05:22.640Z,20.39
2023-08-23T02:06:24.444Z,20.38
2023-08-23T02:07:26.241Z,20.36
2023-08-23T02:08:28.095Z,20.36
2023-08-23T02:09:32.161Z,20.33
2023-08-23T02:10:34.020Z,20.35
2023-08-23T02:11:37.861Z,20.34
2023-08-23T02:12:41.835Z,20.35
2023-08-23T02:13:43.632Z,20.33
2023-08-23T02:14:45.484Z,20.33
2023-08-23T02:15:47.432Z,20.34
2023-08-23T02:16:49.514Z,20.35
2023-08-23T02:17:53.860Z,20.34
2023-08-23T02:18:56.515Z,20.35
2023-08-23T02:19:58.292Z,20.32
2023-08-23T02:21:00.698Z,20.34
2023-08-23T02:22:02.579Z,20.34
2023-08-23T02:23:04.820Z,20.32
2023-08-23T02:24:08.817Z,20.33
2023-08-23T02:25:10.647Z,20.32
2023-08-23T02:26:12.462Z,20.32
2023-08-23T02:27:14.396Z,20.32
2023-08-23T02:28:16.381Z,20.31
2023-08-23T02:29:18.184Z,20.32
2023-08-23T02:30:20.169Z,20.32
2023-08-23T02:31:22.039Z,20.31
2023-08-23T02:32:24.511Z,20.30
2023-08-23T02:33:26.369Z,20.29
2023-08-23T02:34:28.180Z,20.30
2023-08-23T02:35:30.083Z,20.29
2023-08-23T02:36:31.894Z,20.30
2023-08-23T02:37:33.674Z,20.30
2023-08-23T02:38:35.562Z,20.31
2023-08-23T02:39:37.348Z,20.29
2023-08-23T02:40:43.789Z,20.30
2023-08-23T02:41:45.584Z,20.31
2023-08-23T02:42:47.485Z,20.32
2023-08-23T02:43:49.303Z,20.32
2023-08-23T02:44:51.151Z,20.32
2023-08-23T02:45:53.049Z,20.31
2023-08-23T02:46:54.957Z,20.30
2023-08-23T02:47:57.110Z,20.31
2023-08-23T02:48:58.950Z,20.29
2023-08-23T02:50:00.742Z,20.30
2023-08-23T02:51:03.260Z,20.28
2023-08-23T02:52:05.744Z,20.30
2023-08-23T02:53:07.691Z,20.28
2023-08-23T02:54:10.146Z,20.28
2023-08-23T02:55:12.090Z,20.27
2023-08-23T02:56:13.923Z,20.28
2023-08-23T02:57:15.730Z,20.26
2023-08-23T02:58:17.620Z,20.27
2023-08-23T02:59:19.467Z,20.26
2023-08-23T03:00:21.417Z,20.25
2023-08-23T03:01:23.256Z,20.24
2023-08-23T03:02:25.161Z,20.24
2023-08-23T03:03:27.100Z,20.25
2023-08-23T03:04:28.984Z,20.24
2023-08-23T03:05:31.640Z,20.22
2023-08-23T03:06:33.483Z,20.22
2023-08-23T03:07:35.846Z,20.22
2023-08-23T03:08:37.702Z,20.20
2023-08-23T03:09:40.405Z,20.19
2023-08-23T03:10:42.654Z,20.18
2023-08-23T03:11:44.465Z,20.15
2023-08-23T03:12:46.253Z,20.08
2023-08-23T03:13:48.105Z,20.14
2023-08-23T03:14:49.925Z,20.14
2023-08-23T03:15:56.097Z,20.14
2023-08-23T03:16:57.987Z,20.14
2023-08-23T03:17:59.928Z,20.17
2023-08-23T03:19:01.739Z,20.16
2023-08-23T03:20:04.285Z,20.18
2023-08-23T03:21:06.262Z,20.20
2023-08-23T03:22:08.200Z,20.20
2023-08-23T03:23:10.001Z,20.19
2023-08-23T03:24:11.793Z,20.19
2023-08-23T03:25:13.810Z,20.18
2023-08-23T03:26:15.618Z,20.17
2023-08-23T03:27:19.522Z,20.16
2023-08-23T03:28:21.400Z,20.16
2023-08-23T03:29:23.254Z,20.15
2023-08-23T03:30:25.075Z,20.12
2023-08-23T03:31:26.884Z,20.12
2023-08-23T03:32:28.729Z,20.09
2023-08-23T03:33:31.144Z,20.09
2023-08-23T03:34:32.994Z,20.09
2023-08-23T03:35:37.996Z,20.08
2023-08-23T03:36:39.796Z,20.07
2023-08-23T03:37:41.618Z,20.08
2023-08-23T03:38:43.416Z,20.07
2023-08-23T03:39:45.324Z,20.07
2023-08-23T03:40:47.189Z,20.06
2023-08-23T03:41:49.322Z,20.06
2023-08-23T03:42:51.551Z,20.04
2023-08-23T03:43:53.295Z,20.04
2023-08-23T03:44:55.220Z,20.03
2023-08-23T03:45:57.016Z,20.02
2023-08-23T03:46:59.083Z,20.00
2023-08-23T03:48:01.016Z,20.00
2023-08-23T03:49:02.858Z,19.99
2023-08-23T03:50:05.326Z,19.96
2023-08-23T03:51:07.246Z,19.95
2023-08-23T03:52:09.074Z,19.92
2023-08-23T03:53:11.175Z,19.90
2023-08-23T03:54:12.983Z,19.88
2023-08-23T03:55:14.998Z,19.86
2023-08-23T03:56:16.877Z,19.83
2023-08-23T03:57:18.661Z,19.80
2023-08-23T03:58:21.814Z,19.78
2023-08-23T03:59:23.700Z,19.78
2023-08-23T04:00:25.514Z,19.76
2023-08-23T04:01:27.451Z,19.73
2023-08-23T04:02:29.318Z,19.71
2023-08-23T04:03:31.223Z,19.68
2023-08-23T04:04:33.309Z,19.67
2023-08-23T04:05:41.282Z,19.67
2023-08-23T04:06:43.177Z,19.65
2023-08-23T04:07:44.991Z,19.64
2023-08-23T04:08:46.800Z,19.63
2023-08-23T04:09:48.617Z,19.61
2023-08-23T04:10:52.007Z,19.61
2023-08-23T04:11:53.830Z,19.58
2023-08-23T04:12:55.655Z,19.58
2023-08-23T04:13:57.507Z,19.55
2023-08-23T04:14:59.450Z,19.54
2023-08-23T04:16:01.370Z,19.51
2023-08-23T04:17:05.073Z,19.51
2023-08-23T04:18:07.119Z,19.50
2023-08-23T04:19:09.039Z,19.48
2023-08-23T04:20:11.933Z,19.47
2023-08-23T04:21:13.783Z,19.45
2023-08-23T04:22:15.652Z,19.45
2023-08-23T04:23:17.442Z,19.45
2023-08-23T04:24:19.249Z,19.41
2023-08-23T04:25:21.333Z,19.39
2023-08-23T04:26:23.262Z,19.37
2023-08-23T04:27:25.065Z,19.37
2023-08-23T04:28:26.856Z,19.38
2023-08-23T04:29:28.667Z,19.36
2023-08-23T04:30:30.524Z,19.37
2023-08-23T04:31:32.702Z,19.37
2023-08-23T04:32:34.696Z,19.36
2023-08-23T04:33:36.779Z,19.38
2023-08-23T04:34:38.569Z,19.35
2023-08-23T04:35:40.474Z,19.36
2023-08-23T04:36:42.327Z,19.35
2023-08-23T04:37:44.117Z,19.35
2023-08-23T04:38:45.892Z,19.34
2023-08-23T04:39:48.506Z,19.35
2023-08-23T04:40:58.829Z,19.34
2023-08-23T04:42:00.784Z,19.35
2023-08-23T04:43:02.821Z,19.34
2023-08-23T04:44:04.920Z,19.32
2023-08-23T04:45:07.331Z,19.29
2023-08-23T04:46:09.176Z,19.26
2023-08-23T04:47:11.399Z,19.25
2023-08-23T04:48:14.228Z,19.24
2023-08-23T04:49:16.055Z,19.22
2023-08-23T04:50:18.018Z,19.23
2023-08-23T04:51:19.810Z,19.24
2023-08-23T04:52:21.865Z,19.26
2023-08-23T04:53:25.238Z,19.28
2023-08-23T04:54:27.162Z,19.27
2023-08-23T04:55:29.006Z,19.27
2023-08-23T04:56:30.920Z,19.27
2023-08-23T04:57:32.870Z,19.28
2023-08-23T04:58:34.653Z,19.29
2023-08-23T04:59:36.913Z,19.29
2023-08-23T05:00:38.745Z,19.30
2023-08-23T05:01:40.639Z,19.29
2023-08-23T05:02:42.679Z,19.29
2023-08-23T05:03:44.601Z,19.30
2023-08-23T05:04:46.425Z,19.29
2023-08-23T05:05:48.296Z,19.31
2023-08-23T05:06:50.153Z,19.31
2023-08-23T05:07:52.070Z,19.29
2023-08-23T05:08:54.088Z,19.29
2023-08-23T05:09:55.995Z,19.27
2023-08-23T05:10:57.913Z,19.26
2023-08-23T05:11:59.806Z,19.25
2023-08-23T05:13:01.942Z,19.27
2023-08-23T05:14:03.832Z,19.28
2023-08-23T05:15:07.042Z,19.28
2023-08-23T05:16:09.026Z,19.28
2023-08-23T05:17:10.870Z,19.32
2023-08-23T05:18:13.419Z,19.37
2023-08-23T05:19:15.213Z,19.40
2023-08-23T05:20:18.839Z,19.42
2023-08-23T05:21:20.809Z,19.46
2023-08-23T05:22:22.657Z,19.52
2023-08-23T05:23:25.575Z,19.54
2023-08-23T05:24:27.444Z,19.56
2023-08-23T05:25:29.780Z,19.59
2023-08-23T05:26:31.664Z,19.62
2023-08-23T05:27:33.569Z,19.64
2023-08-23T05:28:35.440Z,19.68
2023-08-23T05:29:37.201Z,19.71
2023-08-23T05:30:42.790Z,19.75
2023-08-23T05:31:44.604Z,19.75
2023-08-23T05:32:46.526Z,19.74
2023-08-23T05:33:48.398Z,19.76
2023-08-23T05:34:50.509Z,19.77
2023-08-23T05:35:52.337Z,19.78
2023-08-23T05:36:54.136Z,19.80
2023-08-23T05:37:58.683Z,19.83
2023-08-23T05:39:04.568Z,19.85
2023-08-23T05:40:08.948Z,19.85
2023-08-23T05:41:10.743Z,19.86
2023-08-23T05:42:12.599Z,19.82
2023-08-23T05:43:14.554Z,19.83
2023-08-23T05:44:16.342Z,19.80
2023-08-23T05:45:18.205Z,19.80
2023-08-23T05:46:20.214Z,19.80
2023-08-23T05:47:22.123Z,19.83
2023-08-23T05:48:24.263Z,19.82
2023-08-23T05:49:26.110Z,19.84
2023-08-23T05:50:28.013Z,19.86
2023-08-23T05:51:29.880Z,19.89
2023-08-23T05:52:31.620Z,19.94
2023-08-23T05:53:33.465Z,20.00
2023-08-23T05:54:38.257Z,20.10
2023-08-23T05:55:40.108Z,20.23
2023-08-23T05:56:41.939Z,20.36
2023-08-23T05:57:44.135Z,20.49
2023-08-23T05:58:45.893Z,20.64
2023-08-23T05:59:47.687Z,20.83
2023-08-23T06:00:50.405Z,21.05
2023-08-23T06:01:52.311Z,21.29
2023-08-23T06:02:54.226Z,21.55
2023-08-23T06:03:56.101Z,21.77
2023-08-23T06:06:02.242Z,22.19
2023-08-23T06:07:07.686Z,22.38
2023-08-23T06:08:10.312Z,22.58
2023-08-23T06:09:12.112Z,22.72
2023-08-23T06:10:13.937Z,22.90
2023-08-23T06:11:15.682Z,23.07
2023-08-23T06:12:17.522Z,23.23
2023-08-23T06:13:19.741Z,23.43
2023-08-23T06:14:25.756Z,23.62
2023-08-23T06:15:27.758Z,23.79
2023-08-23T06:16:29.554Z,23.90
2023-08-23T06:17:31.417Z,23.96
2023-08-23T06:18:33.215Z,24.12
2023-08-23T06:19:35.130Z,24.29
2023-08-23T06:20:36.986Z,24.44
2023-08-23T06:21:41.348Z,24.58
2023-08-23T06:22:44.468Z,24.74
2023-08-23T06:23:46.238Z,24.81
2023-08-23T06:24:48.041Z,24.87
2023-08-23T06:25:49.880Z,24.92
2023-08-23T06:26:51.810Z,24.95
2023-08-23T06:27:53.698Z,25.01
2023-08-23T06:28:55.547Z,25.05
2023-08-23T06:29:57.525Z,25.16
2023-08-23T06:30:59.982Z,25.23
2023-08-23T06:32:01.784Z,25.20
2023-08-23T06:33:05.277Z,25.26
2023-08-23T06:34:07.160Z,25.29
2023-08-23T06:35:09.238Z,25.31
2023-08-23T06:36:11.070Z,25.34
2023-08-23T06:37:12.849Z,25.43
2023-08-23T06:38:16.929Z,25.56
2023-08-23T06:39:32.580Z,25.75
2023-08-23T06:40:34.864Z,25.87
2023-08-23T06:41:36.825Z,25.91
2023-08-23T06:42:40.009Z,25.96
2023-08-23T06:43:42.225Z,26.08
2023-08-23T06:44:45.275Z,26.18
2023-08-23T06:45:47.288Z,26.34
2023-08-23T06:46:49.128Z,26.49
2023-08-23T06:47:51.382Z,26.59
2023-08-23T06:48:54.933Z,26.69
2023-08-23T06:49:56.768Z,26.90
2023-08-23T06:51:03.435Z,27.20
2023-08-23T06:52:05.714Z,27.52
2023-08-23T06:53:07.533Z,27.81
2023-08-23T06:54:09.394Z,28.05
2023-08-23T06:55:11.209Z,28.33
2023-08-23T06:56:13.389Z,28.56
2023-08-23T06:57:15.186Z,28.61
2023-08-23T06:58:17.024Z,28.71
2023-08-23T06:59:18.935Z,28.78
2023-08-23T07:00:21.769Z,28.85
2023-08-23T07:01:23.719Z,28.74
2023-08-23T07:02:26.887Z,28.69
2023-08-23T07:03:28.898Z,28.62
2023-08-23T07:04:31.156Z,28.54
2023-08-23T07:05:36.055Z,28.53
2023-08-23T07:06:38.206Z,28.58
2023-08-23T07:07:39.990Z,28.72
2023-08-23T07:08:45.222Z,28.81
2023-08-23T07:09:47.446Z,28.73
2023-08-23T07:10:49.303Z,28.66
2023-08-23T07:11:51.368Z,28.56
2023-08-23T07:12:53.211Z,28.51
2023-08-23T07:13:55.313Z,28.57
2023-08-23T07:14:57.109Z,28.62
2023-08-23T07:15:58.947Z,28.59
2023-08-23T07:17:00.816Z,28.65
2023-08-23T07:18:02.942Z,28.70
2023-08-23T07:19:06.002Z,28.65
2023-08-23T07:20:10.780Z,28.61
2023-08-23T07:21:12.608Z,28.57
2023-08-23T07:22:14.943Z,28.57
2023-08-23T07:23:16.776Z,28.61
2023-08-23T07:24:18.598Z,28.66
2023-08-23T07:25:20.767Z,28.66
2023-08-23T07:26:22.932Z,28.60
2023-08-23T07:27:25.116Z,28.61
2023-08-23T07:28:28.584Z,28.77
2023-08-23T07:29:30.493Z,28.98
2023-08-23T07:30:32.359Z,29.23
2023-08-23T07:31:34.224Z,29.41
2023-08-23T07:32:36.142Z,29.57
2023-08-23T07:33:38.036Z,29.62
2023-08-23T07:34:39.922Z,29.56
2023-08-23T07:35:41.857Z,29.43
2023-08-23T07:36:43.768Z,29.30
2023-08-23T07:37:46.117Z,29.17
2023-08-23T07:38:48.229Z,29.13
2023-08-23T07:39:50.218Z,29.17
2023-08-23T07:40:59.105Z,29.17
2023-08-23T07:42:00.909Z,29.17
2023-08-23T07:43:02.851Z,29.24
2023-08-23T07:44:04.969Z,29.41
2023-08-23T07:45:08.924Z,29.64
2023-08-23T07:46:10.825Z,29.86
2023-08-23T07:47:12.649Z,30.01
2023-08-23T07:48:14.475Z,30.14
2023-08-23T07:49:16.739Z,30.24
2023-08-23T07:50:18.676Z,30.31
2023-08-23T07:51:20.530Z,30.30
2023-08-23T07:52:22.714Z,30.24
2023-08-23T07:53:25.582Z,30.30
2023-08-23T07:54:28.773Z,30.42
2023-08-23T07:55:30.672Z,30.41
2023-08-23T07:56:32.939Z,30.27
2023-08-23T07:57:34.882Z,30.07
2023-08-23T07:58:39.705Z,29.86
2023-08-23T07:59:41.592Z,29.68
2023-08-23T08:00:43.710Z,29.53
2023-08-23T08:01:45.606Z,29.41
2023-08-23T08:02:47.485Z,29.33
2023-08-23T08:03:49.481Z,29.21
2023-08-23T08:04:51.429Z,29.15
2023-08-23T08:05:53.260Z,29.16
2023-08-23T08:06:55.100Z,29.22
2023-08-23T08:08:09.063Z,29.34
2023-08-23T08:09:11.898Z,29.44
2023-08-23T08:10:13.816Z,29.54
2023-08-23T08:11:16.260Z,29.58
2023-08-23T08:12:18.097Z,29.55
2023-08-23T08:13:20.055Z,29.54
2023-08-23T08:14:21.869Z,29.55
2023-08-23T08:15:23.891Z,29.60
2023-08-23T08:16:25.719Z,29.56
2023-08-23T08:17:27.626Z,29.59
2023-08-23T08:18:29.564Z,29.68
2023-08-23T08:19:31.487Z,29.79
2023-08-23T08:20:33.343Z,29.88
2023-08-23T08:21:35.301Z,30.06
2023-08-23T08:22:38.726Z,30.19
2023-08-23T08:23:40.591Z,30.26
2023-08-23T08:24:42.441Z,30.21
2023-08-23T08:25:44.277Z,30.10
2023-08-23T08:26:46.141Z,30.03
2023-08-23T08:27:48.496Z,29.94
2023-08-23T08:28:50.702Z,29.81
2023-08-23T08:29:52.562Z,29.81
2023-08-23T08:30:54.552Z,29.82
2023-08-23T08:31:56.488Z,29.80
2023-08-23T08:32:58.339Z,29.80
2023-08-23T08:34:01.054Z,29.78
2023-08-23T08:35:03.090Z,29.82
2023-08-23T08:36:05.237Z,29.90
2023-08-23T08:37:07.705Z,29.92
2023-08-23T08:38:09.851Z,29.88
2023-08-23T08:39:11.889Z,29.82
2023-08-23T08:40:13.964Z,29.85
2023-08-23T08:41:16.424Z,29.89
2023-08-23T08:42:18.442Z,29.96
2023-08-23T08:43:21.522Z,29.89
2023-08-23T08:44:24.277Z,29.83
2023-08-23T08:45:26.371Z,29.70
2023-08-23T08:46:28.474Z,29.61
2023-08-23T08:47:30.519Z,29.66
2023-08-23T08:48:32.496Z,29.70
2023-08-23T08:49:34.666Z,29.71
2023-08-23T08:50:37.442Z,29.75
2023-08-23T08:51:46.118Z,29.84
2023-08-23T08:52:54.169Z,29.98
2023-08-23T08:53:58.005Z,30.09
2023-08-23T08:55:02.887Z,30.05
2023-08-23T08:56:06.982Z,30.18
2023-08-23T08:57:11.960Z,30.34
2023-08-23T08:58:20.276Z,30.46
2023-08-23T08:59:22.440Z,30.59
2023-08-23T09:00:31.134Z,30.67
2023-08-23T09:01:36.463Z,30.65
2023-08-23T09:02:41.143Z,30.61
2023-08-23T09:03:43.198Z,30.59
2023-08-23T09:04:49.721Z,30.52
2023-08-23T09:05:52.938Z,30.50
2023-08-23T09:06:56.147Z,30.49
2023-08-23T09:07:58.748Z,30.54
2023-08-23T09:09:02.542Z,30.59
2023-08-23T09:10:04.985Z,30.72
2023-08-23T09:11:06.832Z,30.83
2023-08-23T09:12:09.010Z,31.04
2023-08-23T09:13:11.010Z,31.17
2023-08-23T09:14:19.398Z,31.34
2023-08-23T09:15:26.395Z,31.38
2023-08-23T09:16:28.335Z,31.39
2023-08-23T09:17:34.333Z,31.37
2023-08-23T09:18:36.365Z,31.26
2023-08-23T09:19:41.807Z,31.07
2023-08-23T09:20:44.046Z,30.93
2023-08-23T09:21:51.735Z,30.83
2023-08-23T09:22:57.161Z,30.65
2023-08-23T09:24:01.692Z,30.29
2023-08-23T09:25:06.824Z,29.94
2023-08-23T09:26:09.345Z,29.71
2023-08-23T09:27:17.182Z,29.54
2023-08-23T09:28:30.059Z,29.53
2023-08-23T09:29:32.942Z,29.51
2023-08-23T09:30:36.328Z,29.49
2023-08-23T09:31:40.811Z,29.52
2023-08-23T09:32:43.838Z,29.39
2023-08-23T09:33:47.290Z,29.35
2023-08-23T09:34:49.304Z,29.38
2023-08-23T09:35:51.479Z,29.46
2023-08-23T09:36:54.375Z,29.61
2023-08-23T09:37:57.239Z,29.75
2023-08-23T09:39:00.380Z,29.81
2023-08-23T09:40:02.322Z,29.92
2023-08-23T09:41:04.657Z,29.95
2023-08-23T09:42:07.332Z,29.87
2023-08-23T09:43:10.927Z,29.75
2023-08-23T09:44:14.163Z,29.48
2023-08-23T09:45:23.133Z,29.25
2023-08-23T09:46:28.855Z,29.14
2023-08-23T09:47:34.660Z,29.14
2023-08-23T09:48:41.224Z,29.17
2023-08-23T09:49:45.620Z,29.15
2023-08-23T09:50:52.732Z,29.02
2023-08-23T09:51:56.011Z,28.79
2023-08-23T09:53:29.265Z,28.63
2023-08-23T09:55:14.212Z,28.33
2023-08-23T09:56:17.573Z,28.09
2023-08-23T09:57:22.185Z,28.00
2023-08-23T09:58:25.027Z,27.91
2023-08-23T09:59:27.223Z,27.81
2023-08-23T10:00:30.233Z,27.70
2023-08-23T10:01:33.925Z,27.63
2023-08-23T10:02:38.412Z,27.58
2023-08-23T10:03:42.251Z,27.57
2023-08-23T10:04:46.012Z,27.52
2023-08-23T10:05:50.689Z,27.55
2023-08-23T10:06:54.044Z,27.59
2023-08-23T10:07:57.853Z,27.66
2023-08-23T10:09:04.444Z,27.67
2023-08-23T10:10:07.579Z,27.69
2023-08-23T10:11:09.448Z,27.72
2023-08-23T10:12:13.909Z,27.74
2023-08-23T10:13:16.235Z,27.71
2023-08-23T10:14:19.666Z,27.64
2023-08-23T10:15:39.913Z,27.60
2023-08-23T10:16:44.205Z,27.56
2023-08-23T10:17:49.071Z,27.56
2023-08-23T10:18:53.175Z,27.56
2023-08-23T10:19:55.255Z,27.61
2023-08-23T10:20:57.832Z,27.64
2023-08-23T10:21:59.838Z,27.63
2023-08-23T10:23:01.607Z,27.60
2023-08-23T10:24:07.634Z,27.58
2023-08-23T10:25:18.501Z,27.50
2023-08-23T10:26:23.092Z,27.48
2023-08-23T10:27:25.808Z,27.41
2023-08-23T10:28:28.167Z,27.37
2023-08-23T10:29:31.652Z,27.37
2023-08-23T10:30:33.540Z,27.36
2023-08-23T10:31:35.400Z,27.34
2023-08-23T10:32:38.053Z,27.29
2023-08-23T10:33:43.249Z,27.25
2023-08-23T10:34:45.523Z,27.25
2023-08-23T10:35:49.004Z,27.29
2023-08-23T10:36:50.844Z,27.35
2023-08-23T10:37:54.562Z,27.43
2023-08-23T10:39:00.155Z,27.46
2023-08-23T10:40:02.299Z,27.48
2023-08-23T10:41:04.184Z,27.48
2023-08-23T10:42:06.357Z,27.47
2023-08-23T10:43:20.964Z,27.46
2023-08-23T10:44:23.915Z,27.41
2023-08-23T10:45:27.130Z,27.36
2023-08-23T10:46:31.279Z,27.33
2023-08-23T10:47:38.175Z,27.32
2023-08-23T10:48:41.116Z,27.33
2023-08-23T10:49:44.122Z,27.31
2023-08-23T10:50:48.408Z,27.31
2023-08-23T10:51:51.162Z,27.31
2023-08-23T10:52:53.026Z,27.33
2023-08-23T10:53:54.940Z,27.37
2023-08-23T10:54:58.600Z,27.41
2023-08-23T10:56:04.022Z,27.44
2023-08-23T10:57:05.979Z,27.48
2023-08-23T10:58:07.864Z,27.49
2023-08-23T10:59:09.929Z,27.51
2023-08-23T11:00:13.076Z,27.50
2023-08-23T11:01:14.953Z,27.49
2023-08-23T11:02:17.470Z,27.48
2023-08-23T11:03:21.370Z,27.49
2023-08-23T11:04:24.634Z,27.49
2023-08-23T11:05:27.273Z,27.48
2023-08-23T11:06:29.558Z,27.49
2023-08-23T11:07:32.408Z,27.50
2023-08-23T11:08:34.350Z,27.51
2023-08-23T11:09:36.875Z,27.50
2023-08-23T11:10:39.004Z,27.50
2023-08-23T11:11:40.877Z,27.50
2023-08-23T11:12:42.692Z,27.49
2023-08-23T11:13:47.516Z,27.50
2023-08-23T11:14:49.383Z,27.51
2023-08-23T11:15:51.239Z,27.50
2023-08-23T11:16:53.093Z,27.49
2023-08-23T11:17:57.035Z,27.49
2023-08-23T11:18:58.892Z,27.48
2023-08-23T11:20:01.878Z,27.47
2023-08-23T11:21:04.091Z,27.46
2023-08-23T11:22:08.207Z,27.46
2023-08-23T11:23:10.854Z,27.45
2023-08-23T11:24:12.981Z,27.46
2023-08-23T11:25:14.858Z,27.48
2023-08-23T11:26:16.734Z,27.48
2023-08-23T11:27:18.588Z,27.49
2023-08-23T11:28:22.053Z,27.52
2023-08-23T11:29:24.202Z,27.54
2023-08-23T11:30:27.925Z,27.56
2023-08-23T11:31:32.822Z,27.57
2023-08-23T11:32:36.412Z,27.58
2023-08-23T11:33:38.760Z,27.53
2023-08-23T11:34:41.276Z,27.46
2023-08-23T11:35:43.276Z,27.43
2023-08-23T11:36:46.165Z,27.39
2023-08-23T11:37:53.056Z,27.38
2023-08-23T11:38:54.982Z,27.38
2023-08-23T11:40:06.033Z,27.38
2023-08-23T11:41:09.885Z,27.38
2023-08-23T11:42:11.689Z,27.36
2023-08-23T11:43:22.795Z,27.35
2023-08-23T11:44:28.148Z,27.31
2023-08-23T11:45:41.304Z,27.30
2023-08-23T11:46:43.761Z,27.30
2023-08-23T11:47:46.789Z,27.30
2023-08-23T11:48:49.031Z,27.27
2023-08-23T11:49:56.048Z,27.27
2023-08-23T11:50:59.806Z,27.27
2023-08-23T11:52:02.868Z,27.19
2023-08-23T11:53:08.190Z,27.13
2023-08-23T11:54:12.456Z,27.07
2023-08-23T11:55:23.157Z,27.03
2023-08-23T11:56:27.730Z,26.99
2023-08-23T11:57:33.941Z,26.97
2023-08-23T11:58:35.714Z,26.97
2023-08-23T11:59:37.536Z,26.99
2023-08-23T12:00:39.626Z,26.99
2023-08-23T12:01:45.639Z,27.01
2023-08-23T12:02:47.719Z,27.03
2023-08-23T12:03:49.554Z,27.03
2023-08-23T12:04:51.735Z,27.02
2023-08-23T12:05:53.586Z,27.03
2023-08-23T12:06:55.440Z,27.04
2023-08-23T12:07:57.551Z,27.03
2023-08-23T12:08:59.350Z,27.02
2023-08-23T12:10:01.151Z,27.02
2023-08-23T12:11:03.655Z,27.00
2023-08-23T12:12:06.329Z,27.00
2023-08-23T12:13:08.162Z,27.01
2023-08-23T12:14:10.522Z,26.99
2023-08-23T12:15:12.521Z,26.97
2023-08-23T12:16:14.544Z,26.98
2023-08-23T12:17:18.921Z,26.98
2023-08-23T12:18:22.458Z,26.96
2023-08-23T12:19:31.719Z,26.96
2023-08-23T12:20:34.515Z,26.91
2023-08-23T12:21:36.467Z,26.93
2023-08-23T12:22:45.447Z,26.89
2023-08-23T12:23:47.567Z,26.85
2023-08-23T12:24:49.469Z,26.84
2023-08-23T12:25:51.997Z,26.83
2023-08-23T12:26:53.846Z,26.83
2023-08-23T12:27:55.616Z,26.85
2023-08-23T12:28:57.408Z,26.86
2023-08-23T12:29:59.201Z,26.88
2023-08-23T12:31:01.018Z,26.88
2023-08-23T12:32:02.903Z,26.90
2023-08-23T12:33:04.951Z,26.90
2023-08-23T12:34:06.835Z,26.86
2023-08-23T12:35:09.478Z,26.86
2023-08-23T12:36:12.128Z,26.86
2023-08-23T12:37:14.454Z,26.88
2023-08-23T12:38:16.325Z,26.87
2023-08-23T12:39:18.138Z,26.85
2023-08-23T12:40:19.989Z,26.83
2023-08-23T12:41:21.937Z,26.82
2023-08-23T12:42:23.767Z,26.82
2023-08-23T12:43:25.619Z,26.81
2023-08-23T12:44:27.480Z,26.82
2023-08-23T12:45:29.450Z,26.81
2023-08-23T12:46:31.310Z,26.78
2023-08-23T12:47:33.123Z,26.77
2023-08-23T12:48:35.015Z,26.73
2023-08-23T12:49:36.896Z,26.75
2023-08-23T12:50:38.725Z,26.78
2023-08-23T12:51:42.260Z,26.79
2023-08-23T12:52:44.542Z,26.85
2023-08-23T12:53:46.318Z,26.87
2023-08-23T12:54:48.168Z,26.92
2023-08-23T12:55:52.477Z,26.96
2023-08-23T12:56:54.306Z,26.99
2023-08-23T12:57:56.113Z,27.06
2023-08-23T12:58:57.960Z,27.11
2023-08-23T13:00:02.625Z,27.16
2023-08-23T13:01:06.222Z,27.19
2023-08-23T13:02:08.124Z,27.21
2023-08-23T13:03:10.097Z,27.23
2023-08-23T13:04:13.037Z,27.23
2023-08-23T13:05:14.957Z,27.22
2023-08-23T13:06:16.906Z,27.22
2023-08-23T13:07:18.720Z,27.23
2023-08-23T13:08:20.548Z,27.22
2023-08-23T13:09:23.122Z,27.21
2023-08-23T13:10:24.974Z,27.18
2023-08-23T13:11:27.001Z,27.15
2023-08-23T13:12:28.805Z,27.15
2023-08-23T13:13:30.602Z,27.15
2023-08-23T13:14:32.358Z,27.16
2023-08-23T13:15:34.286Z,27.15
2023-08-23T13:16:36.119Z,27.16
2023-08-23T13:17:38.003Z,27.17
2023-08-23T13:18:39.786Z,27.17
2023-08-23T13:19:41.609Z,27.17
2023-08-23T13:20:43.484Z,27.17
2023-08-23T13:21:45.248Z,27.15
2023-08-23T13:22:47.137Z,27.12
2023-08-23T13:23:48.989Z,27.08
2023-08-23T13:24:51.533Z,27.05
2023-08-23T13:25:57.105Z,27.01
2023-08-23T13:26:59.472Z,26.99
2023-08-23T13:28:01.364Z,26.97
2023-08-23T13:29:03.158Z,26.98
2023-08-23T13:30:07.166Z,26.97
2023-08-23T13:31:09.032Z,26.97
2023-08-23T13:32:25.183Z,26.99
2023-08-23T13:33:29.344Z,26.99
2023-08-23T13:34:31.202Z,26.99